Palm Beach, FL

11:49 AM EDT on October 01, 2014 (GMT -0400)
APRSWXNET Palm Beach FL US | Change Station
CLOSE
Current Station
Personal Weather Station
Location: Lake Worth, FL
Elevation: 13 ft
Nearby Weather Stations

Elev 13 ft 26.64 °N, 80.04 °W | Updated 39 minutes ago

Scattered Clouds
Scattered Clouds
87.0 °F
Feels Like 100 °F
N
3.0
Wind Variable Wind from SSW
Gusts 10.0 mph

Today
High -- | Low -- °F
--% Chance of Precip.
Yesterday
High -- | Low -- °F
Precip. -- in
7:12 AM 7:06 PM
Waxing Crescent, 48% visible
Pressure 29.94 in
Visibility 10.0 miles
Clouds Few 1700 ft
Scattered Clouds 2300 ft
Scattered Clouds 4700 ft
Heat Index 100 °F
Dew Point 78.0 °F
Humidity 75%
Rainfall 0.38 in
Snow Depth Not available.
UV 6 out of 12
Pollen 4.60 out of 12
Ozone Good
PM2.5 Good
Flu Activity Not available.
METAR KPBI 011453Z 25009KT 10SM FEW017 SCT023TCU SCT047 30/24 A2994 RMK AO2 SLP139 TCU OHD TCU DSNT SE T03000244 51013

More Conditions Fewer Conditions

Pressure 29.94 in
Visibility 10.0 miles
Clouds Few 1700 ft
Scattered Clouds 2300 ft
Scattered Clouds 4700 ft
Heat Index 100 °F
Dew Point 78.0 °F
Humidity 75%
Rainfall 0.38 in
Snow Depth Not available.
UV 6 out of 12
Pollen 4.60 out of 12
Ozone Good
PM2.5 Good
Flu Activity Not available.
METAR KPBI 011453Z 25009KT 10SM FEW017 SCT023TCU SCT047 30/24 A2994 RMK AO2 SLP139 TCU OHD TCU DSNT SE T03000244 51013

More Conditions Fewer Conditions

10-Day Weather Forecast

Almanac

Astronomy

Oct. 01, 2014 Rise Set
Actual Time 7:12 AM EDT 7:06 PM EDT
Civil Twilight 6:49 AM EDT 7:29 PM EDT
Nautical Twilight 6:22 AM EDT 7:56 PM EDT
Astronomical Twilight 5:55 AM EDT 8:23 PM EDT
Moon 1:49 PM EDT 12:00 AM EDT
Length of Visible Light 12h 40m
Length of Day
11h 53m
Tomorrow will be 1m 33s shorter.
Waxing Crescent, 48% of the Moon is Illuminated
Today
Waxing Crescent
Oct 1
First Quarter
Oct 8
Full
Oct 15
Last Quarter
Oct 23
New

Today's Extremes

State Highs State Lows

Community

WunderPhotos

Upload Photos

1,757,967 photos uploaded!

Nearby

Air Quality

  Air Quality AQ Index Pollutant
Yesterday Good
PM2.5
Yesterday Good
OZONE
Current Good
PM2.5
Current Good
OZONE
Wednesday Good
OZONE
Wednesday Good
PM2.5
Thursday Good
OZONE
Thursday Good
PM2.5

Snow Depth

Station Depth Elevation
No new snow has been reported.

Earthquake Activity

City Distance Mag. Time & Date
No recent earthquake activity has been reported nearby.
Minimum magnitude displayed is 2.5.

Coastal Water Temperatures

Place Temperature
Lake Worth, FL 84.9 °F
Virginia Key, FL 84.9 °F

Nearby Weather Stations